createdAt,value
2022-08-28T00:00:46.822Z,28.02
2022-08-28T00:15:51.011Z,24.70
2022-08-28T00:30:59.034Z,25.55
2022-08-28T00:46:02.246Z,24.33
2022-08-28T01:01:04.537Z,29.92
2022-08-28T01:16:06.845Z,27.60
2022-08-28T01:31:10.780Z,27.58
2022-08-28T01:46:13.239Z,26.92
2022-08-28T02:01:17.767Z,26.42
2022-08-28T02:16:20.258Z,24.17
2022-08-28T02:31:22.593Z,23.73
2022-08-28T02:46:26.591Z,24.15
2022-08-28T03:01:29.050Z,21.92
2022-08-28T03:16:34.098Z,22.13
2022-08-28T03:31:36.418Z,24.15
2022-08-28T03:46:38.649Z,24.92
2022-08-28T04:01:40.940Z,22.77
2022-08-28T04:16:43.334Z,22.85
2022-08-28T04:31:45.662Z,22.60
2022-08-28T04:46:48.431Z,21.92
2022-08-28T05:01:51.945Z,22.63
2022-08-28T05:16:55.439Z,24.35
2022-08-28T05:31:57.702Z,20.95
2022-08-28T05:46:59.970Z,20.48
2022-08-28T06:02:04.330Z,20.60
2022-08-28T06:17:06.939Z,21.95
2022-08-28T06:32:09.332Z,20.50
2022-08-28T06:47:11.668Z,20.77
2022-08-28T07:02:14.132Z,19.20
2022-08-28T07:17:16.512Z,19.30
2022-08-28T07:32:21.737Z,18.90
2022-08-28T07:47:25.943Z,19.52
2022-08-28T08:02:30.722Z,17.48
2022-08-28T08:17:33.047Z,16.55
2022-08-28T08:32:35.308Z,14.02
2022-08-28T08:47:47.690Z,13.93
2022-08-28T09:02:55.939Z,14.25
2022-08-28T09:18:36.861Z,9.63
2022-08-28T09:33:45.544Z,9.55
2022-08-28T09:48:48.537Z,9.23
2022-08-28T10:04:17.180Z,8.85
2022-08-28T10:19:38.120Z,6.73
2022-08-28T10:34:54.409Z,5.82
2022-08-28T10:50:01.819Z,7.38
2022-08-28T11:05:04.786Z,7.20
2022-08-28T11:20:25.057Z,6.50
2022-08-28T11:35:30.264Z,6.28
2022-08-28T11:50:33.000Z,6.00
2022-08-28T12:05:40.125Z,6.10
2022-08-28T12:20:51.390Z,6.50
2022-08-28T12:35:59.410Z,5.32
2022-08-28T12:51:04.350Z,5.63
2022-08-28T13:06:07.337Z,5.75
2022-08-28T13:21:32.436Z,5.50
2022-08-28T13:36:58.104Z,5.68
2022-08-28T13:52:01.117Z,4.80
2022-08-28T14:07:04.224Z,4.78
2022-08-28T14:22:06.507Z,4.60
2022-08-28T14:37:08.876Z,4.20
2022-08-28T14:52:12.435Z,4.63
2022-08-28T15:07:15.320Z,4.47
2022-08-28T15:22:27.029Z,4.47
2022-08-28T15:37:30.390Z,4.70
2022-08-28T15:52:33.955Z,4.50
2022-08-28T16:07:36.183Z,4.55
2022-08-28T16:22:38.772Z,4.10
2022-08-28T16:37:41.018Z,4.32
2022-08-28T16:52:43.235Z,5.00
2022-08-28T17:07:46.312Z,4.47
2022-08-28T17:22:48.537Z,5.07
2022-08-28T17:37:53.627Z,4.53
2022-08-28T17:52:55.872Z,5.25
2022-08-28T18:08:00.300Z,5.05
2022-08-28T18:23:02.986Z,4.80
2022-08-28T18:38:05.755Z,5.03
2022-08-28T18:53:08.034Z,4.38
2022-08-28T19:08:10.379Z,4.70
2022-08-28T19:23:17.285Z,5.15
2022-08-28T19:38:19.967Z,4.40
2022-08-28T19:53:22.251Z,4.45
2022-08-28T20:08:24.636Z,4.60
2022-08-28T20:23:26.859Z,5.10
2022-08-28T20:38:29.091Z,4.95
2022-08-28T20:53:37.428Z,4.78
2022-08-28T21:08:40.156Z,6.22
2022-08-28T21:23:42.457Z,5.45
2022-08-28T21:38:45.082Z,5.85
2022-08-28T21:53:47.313Z,5.35
2022-08-28T22:08:49.716Z,6.07
2022-08-28T22:23:51.965Z,6.25
2022-08-28T22:38:55.727Z,5.80
2022-08-28T22:53:58.630Z,6.10
2022-08-28T23:09:00.843Z,6.13
2022-08-28T23:24:03.220Z,6.43
2022-08-28T23:39:05.456Z,6.50
2022-08-28T23:54:08.020Z,7.28
